Time;durP1;ratioP1;P1;durP2;ratioP2;P2;SDS_P1;SDS_P2;PMS_P1;PMS_P2;Temp;Humidity;BMP_temperature;BMP_pressure;BME280_temperature;BME280_humidity;BME280_pressure;Samples;Min_cycle;Max_cycle;Signal;HPM_P1;HPM_P2
2021/12/29 00:04:31;;;;;;;1.10;0.40;;;;;;;9.15;100.00;98561.88;10233938;28;20161;-61
2021/12/29 00:09:36;;;;;;;1.13;0.32;;;;;;;9.26;100.00;98572.22;10234616;28;20087;-60
2021/12/29 00:14:37;;;;;;;2.17;0.50;;;;;;;9.26;100.00;98597.94;10232475;28;20564;-59
2021/12/29 00:19:39;;;;;;;2.58;0.70;;;;;;;9.24;100.00;98600.75;10235693;28;20527;-60
2021/12/29 00:24:41;;;;;;;1.10;0.30;;;;;;;9.25;100.00;98607.75;10243443;28;20134;-59
2021/12/29 00:29:42;;;;;;;2.13;0.47;;;;;;;9.33;100.00;98629.03;10243867;28;20209;-59
2021/12/29 00:34:43;;;;;;;1.42;0.50;;;;;;;9.28;100.00;98627.84;10237550;28;20116;-59
2021/12/29 00:39:45;;;;;;;2.35;0.60;;;;;;;9.32;99.76;98630.03;10233931;28;20143;-59
2021/12/29 00:44:46;;;;;;;1.80;0.75;;;;;;;9.38;98.50;98647.16;10251206;28;20151;-59
2021/12/29 00:49:48;;;;;;;2.45;0.50;;;;;;;9.34;98.58;98648.47;10238871;28;20133;-62
2021/12/29 00:54:49;;;;;;;1.73;0.40;;;;;;;9.51;98.49;98663.50;10239662;28;20323;-60
2021/12/29 00:59:51;;;;;;;2.35;0.65;;;;;;;9.52;98.02;98682.97;10254003;28;20057;-60
2021/12/29 01:04:53;;;;;;;2.45;1.17;;;;;;;9.62;98.11;98690.81;10240769;28;20157;-59
2021/12/29 01:09:55;;;;;;;3.75;0.77;;;;;;;9.56;97.75;98705.53;10238227;28;20097;-60
2021/12/29 01:14:57;;;;;;;2.95;0.80;;;;;;;9.69;97.80;98721.09;10234910;28;20126;-59
2021/12/29 01:19:59;;;;;;;2.53;0.60;;;;;;;9.62;96.95;98714.72;10247004;28;20055;-60
2021/12/29 01:25:00;;;;;;;2.00;0.80;;;;;;;9.64;97.03;98736.69;10240039;28;20676;-60
2021/12/29 01:30:08;;;;;;;2.35;1.02;;;;;;;9.66;96.63;98763.91;10235403;28;20047;-62
2021/12/29 01:35:11;;;;;;;1.75;0.30;;;;;;;9.62;96.07;98786.44;10243509;28;20058;-59
2021/12/29 01:40:15;;;;;;;1.45;0.30;;;;;;;9.62;95.86;98805.06;10240074;28;20052;-59
2021/12/29 01:45:17;;;;;;;1.50;0.30;;;;;;;9.53;96.88;98799.69;10237936;28;20051;-58
2021/12/29 01:50:19;;;;;;;2.10;0.30;;;;;;;9.50;96.92;98810.63;10230435;28;20051;-59
2021/12/29 01:55:22;;;;;;;2.55;0.43;;;;;;;9.53;97.31;98834.22;10238109;28;20521;-59
2021/12/29 02:00:29;;;;;;;1.10;0.50;;;;;;;9.58;97.84;98846.19;10239021;28;20039;-60
2021/12/29 02:05:30;;;;;;;0.88;0.20;;;;;;;9.55;97.22;98848.16;10227822;28;20113;-60
2021/12/29 02:10:41;;;;;;;2.60;0.80;;;;;;;9.54;98.05;98851.81;10238798;28;20579;-60
2021/12/29 02:15:56;;;;;;;1.88;0.30;;;;;;;9.44;99.23;98858.19;10136424;29;20052;-60
2021/12/29 02:20:58;;;;;;;1.15;0.70;;;;;;;9.44;99.78;98866.97;10152260;29;20767;-59
2021/12/29 02:25:59;;;;;;;1.58;0.50;;;;;;;9.39;100.00;98885.19;10150605;29;20562;-59
2021/12/29 02:31:02;;;;;;;0.77;0.32;;;;;;;9.39;100.00;98887.84;10135572;29;22308;-61
2021/12/29 02:36:05;;;;;;;0.70;0.40;;;;;;;9.43;100.00;98899.84;10155637;29;20112;-60
2021/12/29 02:41:08;;;;;;;1.48;0.40;;;;;;;9.46;100.00;98926.09;10151228;29;20102;-61
2021/12/29 02:46:12;;;;;;;1.85;0.45;;;;;;;9.42;100.00;98939.84;10187724;28;20160;-60
2021/12/29 02:51:14;;;;;;;1.23;0.60;;;;;;;9.45;100.00;98948.31;10242102;28;20047;-59
2021/12/29 02:56:16;;;;;;;2.67;0.60;;;;;;;9.52;100.00;98948.59;10237421;28;20127;-60
2021/12/29 03:01:18;;;;;;;0.90;0.40;;;;;;;9.58;100.00;98947.13;10238261;28;20051;-60
2021/12/29 03:06:19;;;;;;;2.40;0.60;;;;;;;9.55;99.91;98966.88;10250223;28;20051;-59
2021/12/29 03:11:22;;;;;;;2.20;0.40;;;;;;;9.64;99.48;98978.44;10240892;28;20138;-60
2021/12/29 03:16:24;;;;;;;0.80;0.32;;;;;;;9.57;99.80;98961.41;10235638;28;20059;-60
2021/12/29 03:21:26;;;;;;;0.90;0.50;;;;;;;9.51;100.00;98958.34;10229779;28;20075;-60
2021/12/29 03:26:27;;;;;;;0.70;0.40;;;;;;;9.46;99.96;98973.09;10238666;28;20133;-59
2021/12/29 03:31:31;;;;;;;1.13;0.40;;;;;;;9.44;100.00;98999.78;10243007;28;20050;-59
2021/12/29 03:36:33;;;;;;;1.58;0.57;;;;;;;9.58;100.00;99011.75;10237625;28;20047;-60
2021/12/29 03:41:35;;;;;;;0.70;0.50;;;;;;;9.58;99.13;99008.25;10235020;28;20133;-60
2021/12/29 03:46:39;;;;;;;0.82;0.60;;;;;;;9.61;98.25;98995.50;10231090;28;20176;-61
2021/12/29 03:51:41;;;;;;;1.00;0.57;;;;;;;9.69;97.57;98990.28;10239221;28;20061;-60
2021/12/29 03:56:43;;;;;;;2.17;0.57;;;;;;;9.68;98.07;98998.41;10250249;28;20050;-60
2021/12/29 04:01:46;;;;;;;1.15;0.73;;;;;;;9.73;96.83;99014.75;10256888;28;20142;-60
2021/12/29 04:06:49;;;;;;;1.98;1.05;;;;;;;9.61;96.69;99010.59;10264497;28;20054;-60
2021/12/29 04:11:51;;;;;;;2.03;0.45;;;;;;;9.66;96.39;99018.97;10241111;28;20580;-60
2021/12/29 04:16:55;;;;;;;2.33;0.75;;;;;;;9.70;95.23;99033.66;10249053;28;20057;-59
2021/12/29 04:21:58;;;;;;;1.70;0.75;;;;;;;9.70;94.26;99026.50;10268275;23;20061;-68
2021/12/29 04:27:00;;;;;;;0.90;0.30;;;;;;;9.64;92.92;99037.72;10249956;28;20063;-67
2021/12/29 04:32:01;;;;;;;1.30;0.55;;;;;;;9.66;94.08;99051.69;10265467;28;20133;-67
2021/12/29 04:37:03;;;;;;;1.35;0.40;;;;;;;9.65;93.96;99070.44;10232346;28;20061;-67
2021/12/29 04:42:05;;;;;;;1.30;0.40;;;;;;;9.68;93.65;99070.13;10248162;28;20057;-66
2021/12/29 04:47:07;;;;;;;0.57;0.30;;;;;;;9.66;92.68;99088.06;10245815;28;20602;-67
2021/12/29 04:52:11;;;;;;;0.40;0.30;;;;;;;9.65;92.77;99089.91;10250089;28;20737;-66
2021/12/29 04:57:12;;;;;;;1.05;0.40;;;;;;;9.62;92.00;99107.94;10246793;28;20046;-67
2021/12/29 05:02:14;;;;;;;0.93;0.30;;;;;;;9.62;92.01;99121.22;10254846;28;20069;-68
2021/12/29 05:12:35;;;;;;;0.98;0.60;;;;;;;9.52;91.17;99130.06;10245347;28;20047;-67
2021/12/29 05:17:36;;;;;;;0.50;0.47;;;;;;;9.44;89.88;99129.09;10246135;28;20055;-67
2021/12/29 05:22:38;;;;;;;0.30;0.20;;;;;;;9.41;89.61;99143.50;10230633;28;20043;-67
2021/12/29 05:27:39;;;;;;;1.15;0.50;;;;;;;9.44;88.68;99153.81;10247859;28;20051;-68
2021/12/29 05:32:41;;;;;;;1.75;0.40;;;;;;;9.54;87.57;99156.47;10248939;28;20074;-67
2021/12/29 05:37:43;;;;;;;0.63;0.40;;;;;;;9.54;86.16;99159.13;10245708;28;20146;-68
2021/12/29 05:42:44;;;;;;;1.20;0.40;;;;;;;9.54;86.34;99162.63;10249704;28;20137;-67
2021/12/29 05:47:46;;;;;;;0.82;0.43;;;;;;;9.57;85.44;99177.44;10247322;28;20142;-67
2021/12/29 05:52:48;;;;;;;1.25;0.32;;;;;;;9.57;83.91;99190.72;10245592;28;20166;-69
2021/12/29 05:57:49;;;;;;;0.30;0.30;;;;;;;9.48;85.36;99196.91;10247938;28;20050;-67
2021/12/29 06:02:52;;;;;;;0.40;0.30;;;;;;;9.50;84.44;99201.09;10245391;28;20579;-69
2021/12/29 06:07:54;;;;;;;1.35;0.45;;;;;;;9.49;84.45;99207.38;10247045;28;20082;-69
2021/12/29 06:12:55;;;;;;;2.38;0.40;;;;;;;9.54;84.89;99196.31;10245046;28;20086;-68
2021/12/29 06:17:57;;;;;;;1.75;0.80;;;;;;;9.51;85.51;99208.06;10253498;28;20078;-68
2021/12/29 06:22:58;;;;;;;1.58;0.60;;;;;;;9.57;85.97;99208.50;10247014;28;20625;-68
2021/12/29 06:28:00;;;;;;;3.30;1.00;;;;;;;9.64;86.63;99226.38;10226329;28;20111;-68
2021/12/29 06:33:03;;;;;;;1.60;0.90;;;;;;;9.63;86.04;99223.88;10238020;28;20046;-68
2021/12/29 06:38:04;;;;;;;1.30;0.70;;;;;;;9.66;87.36;99231.53;10235604;28;20078;-68
2021/12/29 06:43:06;;;;;;;1.95;1.13;;;;;;;9.78;86.84;99234.88;10221653;28;20580;-67
2021/12/29 06:48:07;;;;;;;2.88;0.85;;;;;;;9.81;86.83;99251.38;10221140;28;20133;-67
2021/12/29 06:53:09;;;;;;;1.13;0.47;;;;;;;9.78;86.37;99261.47;10233966;28;20061;-67
2021/12/29 06:58:11;;;;;;;2.55;0.90;;;;;;;9.79;86.63;99269.28;10223946;28;20055;-67
2021/12/29 07:03:12;;;;;;;2.80;0.93;;;;;;;9.82;87.01;99287.59;10216420;28;20050;-67
2021/12/29 07:08:14;;;;;;;1.20;0.73;;;;;;;9.78;86.76;99283.56;10206613;28;20051;-67
2021/12/29 07:13:16;;;;;;;1.42;0.80;;;;;;;9.73;87.52;99296.44;10222879;28;20055;-67
2021/12/29 07:18:18;;;;;;;1.42;0.82;;;;;;;9.70;88.03;99302.88;10206528;28;20425;-67
2021/12/29 07:23:19;;;;;;;1.98;1.00;;;;;;;9.81;87.96;99309.84;10218822;28;20075;-67
2021/12/29 07:28:20;;;;;;;2.22;1.00;;;;;;;9.76;87.96;99303.28;10219345;28;20048;-67
2021/12/29 07:33:22;;;;;;;1.77;1.10;;;;;;;9.82;87.76;99324.81;10226644;28;20061;-68
2021/12/29 07:38:23;;;;;;;1.40;1.17;;;;;;;9.82;87.12;99316.84;10229025;28;20047;-67
2021/12/29 07:43:25;;;;;;;2.53;1.20;;;;;;;9.81;88.09;99338.25;10214209;28;20047;-67
2021/12/29 07:48:29;;;;;;;2.85;1.50;;;;;;;9.79;87.86;99340.19;10228212;28;20059;-67
2021/12/29 07:53:31;;;;;;;1.58;1.05;;;;;;;9.76;87.85;99359.94;10236728;28;20065;-68
2021/12/29 07:58:35;;;;;;;2.05;1.00;;;;;;;9.76;88.59;99378.53;10222706;28;21588;-66
2021/12/29 08:03:40;;;;;;;2.40;1.00;;;;;;;9.74;89.14;99383.13;10227538;28;20412;-69
2021/12/29 08:08:41;;;;;;;1.70;1.05;;;;;;;9.68;90.02;99383.69;10227417;28;20058;-67
2021/12/29 08:13:43;;;;;;;2.75;1.30;;;;;;;9.74;90.14;99388.47;10222230;28;20054;-67
2021/12/29 08:18:44;;;;;;;1.60;1.10;;;;;;;9.74;90.30;99393.78;10223716;28;20477;-67
2021/12/29 08:23:46;;;;;;;3.05;1.55;;;;;;;9.76;90.22;99394.50;10220855;28;20145;-67
2021/12/29 08:28:49;;;;;;;2.53;1.38;;;;;;;9.79;89.79;99390.69;10225763;28;20073;-68
2021/12/29 08:33:50;;;;;;;1.83;1.45;;;;;;;9.77;88.72;99385.50;10221404;28;20773;-67
2021/12/29 08:38:52;;;;;;;3.70;1.95;;;;;;;9.94;89.04;99393.78;10212168;28;20716;-67
2021/12/29 08:43:53;;;;;;;3.50;2.42;;;;;;;10.02;88.20;99401.91;10230123;28;20063;-66
2021/12/29 08:48:55;;;;;;;2.42;1.38;;;;;;;9.99;87.77;99418.13;10227161;28;20057;-67
2021/12/29 08:53:59;;;;;;;2.47;2.00;;;;;;;10.00;87.42;99410.00;10226125;28;20146;-68
2021/12/29 08:59:01;;;;;;;2.15;1.70;;;;;;;10.09;87.19;99408.34;10233693;28;20524;-67
2021/12/29 09:04:02;;;;;;;3.25;1.63;;;;;;;10.05;86.74;99404.28;10209858;28;20054;-67
2021/12/29 09:09:04;;;;;;;3.42;1.90;;;;;;;10.02;86.57;99423.16;10224986;28;20058;-67
2021/12/29 09:14:06;;;;;;;2.55;1.75;;;;;;;10.08;86.71;99428.75;10226221;28;20468;-66
2021/12/29 09:19:11;;;;;;;2.30;1.88;;;;;;;10.06;86.52;99429.91;10225660;28;20047;-67
2021/12/29 09:24:13;;;;;;;3.85;1.77;;;;;;;10.06;85.83;99437.88;10225460;28;20050;-66
2021/12/29 09:29:14;;;;;;;2.65;1.95;;;;;;;9.93;86.28;99454.09;10229996;28;20896;-67
2021/12/29 09:34:16;;;;;;;4.97;2.00;;;;;;;9.87;86.45;99455.47;10224848;28;20579;-67
2021/12/29 09:39:18;;;;;;;3.05;1.60;;;;;;;9.85;86.36;99454.78;10224434;28;20058;-67
2021/12/29 09:44:20;;;;;;;3.85;1.65;;;;;;;9.70;87.72;99448.19;10225580;28;20070;-66
2021/12/29 09:49:22;;;;;;;4.22;2.17;;;;;;;9.62;88.01;99448.03;10225609;28;20061;-68
2021/12/29 09:54:24;;;;;;;3.95;2.08;;;;;;;9.71;88.09;99444.53;10217770;28;20047;-66
2021/12/29 09:59:26;;;;;;;4.57;1.65;;;;;;;9.74;88.25;99446.91;10224795;28;20050;-68
2021/12/29 10:04:27;;;;;;;2.72;1.90;;;;;;;9.69;88.66;99451.81;10206794;28;20061;-67
2021/12/29 10:09:33;;;;;;;3.22;1.63;;;;;;;9.76;89.03;99460.94;10220899;28;20055;-68
2021/12/29 10:14:34;;;;;;;3.45;2.10;;;;;;;9.69;89.05;99470.44;10232864;28;20055;-70
2021/12/29 10:19:37;;;;;;;4.28;2.20;;;;;;;9.82;88.13;99455.06;10222576;28;20061;-67
2021/12/29 10:24:38;;;;;;;4.15;1.70;;;;;;;10.02;87.43;99450.59;10224851;28;20141;-65
2021/12/29 10:29:40;;;;;;;3.72;1.90;;;;;;;10.06;86.83;99451.16;10222445;28;20407;-67
2021/12/29 10:34:53;;;;;;;3.25;2.17;;;;;;;10.09;85.59;99450.88;10217607;28;20061;-67
2021/12/29 10:39:56;;;;;;;4.38;1.92;;;;;;;10.16;85.06;99440.50;10225323;28;20122;-66
2021/12/29 10:45:02;;;;;;;4.87;2.20;;;;;;;10.25;84.61;99451.16;10206788;28;20071;-65
2021/12/29 10:50:10;;;;;;;3.17;2.03;;;;;;;10.32;83.36;99446.09;10227140;28;20051;-66
2021/12/29 10:55:16;;;;;;;3.58;2.00;;;;;;;10.34;83.35;99449.47;10233152;28;20527;-67
2021/12/29 11:00:19;;;;;;;3.28;1.85;;;;;;;10.36;83.17;99458.19;10222106;28;20674;-67
2021/12/29 11:05:20;;;;;;;6.05;2.33;;;;;;;10.35;81.81;99466.31;10205042;28;20464;-67
2021/12/29 11:10:22;;;;;;;3.78;1.50;;;;;;;10.30;81.68;99455.19;10219032;28;20062;-67
2021/12/29 11:15:32;;;;;;;3.13;1.80;;;;;;;10.53;80.83;99466.41;10222697;28;20825;-69
2021/12/29 11:20:34;;;;;;;4.93;1.58;;;;;;;10.89;79.49;99458.63;10206645;28;20051;-67
2021/12/29 11:25:38;;;;;;;3.22;1.52;;;;;;;11.30;77.17;99462.69;10220192;28;20134;-66
2021/12/29 11:30:43;;;;;;;4.23;1.20;;;;;;;11.32;76.49;99460.69;10215768;28;20043;-66
2021/12/29 11:35:48;;;;;;;3.40;1.92;;;;;;;11.41;75.91;99453.66;10215613;28;20047;-71
2021/12/29 11:40:57;;;;;;;3.08;1.60;;;;;;;12.09;72.47;99440.88;10222800;28;20051;-66
2021/12/29 11:45:59;;;;;;;1.88;1.10;;;;;;;12.99;68.50;99441.50;10229143;28;20890;-68
2021/12/29 11:51:03;;;;;;;4.82;2.08;;;;;;;16.69;58.22;99437.22;10222819;28;20692;-68
2021/12/29 11:56:13;;;;;;;2.38;1.42;;;;;;;16.14;56.80;99436.53;10224111;28;20133;-68
2021/12/29 12:01:21;;;;;;;3.75;1.50;;;;;;;15.19;59.37;99443.75;10219633;28;20202;-67
2021/12/29 12:06:33;;;;;;;3.85;1.17;;;;;;;15.10;58.62;99442.13;10217147;28;20055;-67
2021/12/29 12:11:49;;;;;;;3.42;1.30;;;;;;;15.86;57.28;99439.75;10236473;28;20078;-67
2021/12/29 12:16:57;;;;;;;2.03;0.80;;;;;;;15.61;55.80;99443.56;10223005;28;20053;-67
2021/12/29 12:22:22;;;;;;;3.67;1.33;;;;;;;14.19;60.76;99451.25;10228770;28;20047;-66
2021/12/29 12:27:30;;;;;;;3.60;1.50;;;;;;;13.10;64.16;99456.41;10222233;28;20060;-69
2021/12/29 12:32:50;;;;;;;5.22;1.42;;;;;;;12.36;67.06;99451.44;10222834;28;20562;-66
2021/12/29 12:37:54;;;;;;;2.85;1.25;;;;;;;12.10;68.25;99464.72;10226849;28;20058;-66
2021/12/29 12:43:01;;;;;;;3.60;1.63;;;;;;;11.88;68.63;99463.31;10209894;28;20054;-66
2021/12/29 12:48:12;;;;;;;7.28;1.52;;;;;;;11.70;69.01;99465.97;10235833;28;20084;-64
2021/12/29 12:53:25;;;;;;;4.82;1.60;;;;;;;11.54;68.95;99447.94;10212561;28;20478;-68
2021/12/29 12:58:37;;;;;;;4.20;1.98;;;;;;;11.55;68.82;99433.63;10211811;28;20047;-67
2021/12/29 13:03:39;;;;;;;3.53;1.80;;;;;;;11.50;68.78;99427.94;10226110;28;20050;-68
2021/12/29 13:08:44;;;;;;;4.95;1.83;;;;;;;11.38;70.36;99437.09;10234256;28;20058;-68
2021/12/29 13:13:48;;;;;;;3.20;1.75;;;;;;;11.32;71.10;99459.88;10226827;28;20167;-66
2021/12/29 13:18:50;;;;;;;;;;;;;;;11.25;70.87;99462.25;10211111;28;20043;-65
2021/12/29 13:24:14;;;;;;;5.60;1.90;;;;;;;11.16;71.71;99457.81;10225040;28;19930;-65
2021/12/29 13:29:19;;;;;;;4.25;1.67;;;;;;;11.07;71.60;99450.72;10225452;28;20134;-66
2021/12/29 13:34:28;;;;;;;6.38;1.52;;;;;;;10.94;73.13;99457.22;10234844;28;20047;-66
2021/12/29 13:39:29;;;;;;;3.80;2.03;;;;;;;10.94;72.87;99457.22;10232661;28;20063;-66
2021/12/29 13:44:30;;;;;;;2.75;1.77;;;;;;;10.98;73.62;99462.25;10229157;28;20138;-65
2021/12/29 13:49:32;;;;;;;4.22;1.45;;;;;;;11.03;73.36;99457.31;10226031;28;20561;-67
2021/12/29 13:54:33;;;;;;;4.65;1.40;;;;;;;10.95;74.13;99458.88;10248359;28;20745;-67
2021/12/29 13:59:34;;;;;;;6.28;1.83;;;;;;;10.83;75.19;99480.50;10225487;28;20112;-67
2021/12/29 14:04:40;;;;;;;7.82;1.83;;;;;;;10.82;75.84;99474.31;10229038;28;20154;-67
2021/12/29 14:09:42;;;;;;;5.78;2.17;;;;;;;10.67;77.30;99494.41;10226685;28;20054;-67
2021/12/29 14:14:46;;;;;;;3.05;2.05;;;;;;;10.73;78.19;99489.38;10224960;28;20632;-67
2021/12/29 14:19:48;;;;;;;6.87;3.07;;;;;;;10.81;78.26;99493.97;10233968;28;20564;-68
2021/12/29 14:24:49;;;;;;;7.18;3.45;;;;;;;10.80;79.53;99478.97;10223901;28;20161;-67
2021/12/29 14:29:51;;;;;;;6.35;3.42;;;;;;;10.67;81.58;99454.47;10225172;28;20134;-67
2021/12/29 14:34:54;;;;;;;6.22;3.35;;;;;;;10.61;82.54;99432.78;10223474;28;20146;-66
2021/12/29 14:39:55;;;;;;;7.13;3.38;;;;;;;10.47;84.53;99443.88;10204030;28;20782;-68
2021/12/29 14:45:07;;;;;;;7.15;3.22;;;;;;;10.53;84.84;99451.28;10211565;28;20556;-67
2021/12/29 14:50:13;;;;;;;4.55;2.47;;;;;;;10.49;85.27;99463.19;10219224;28;20681;-67
2021/12/29 14:55:21;;;;;;;6.82;2.75;;;;;;;10.30;86.37;99474.69;10220878;28;20211;-69
2021/12/29 15:00:26;;;;;;;4.28;2.35;;;;;;;10.38;86.47;99466.00;10228061;28;20555;-68
2021/12/29 15:05:39;;;;;;;4.63;3.17;;;;;;;10.36;87.19;99475.97;10218012;28;20523;-66
2021/12/29 15:10:43;;;;;;;5.43;3.03;;;;;;;10.21;88.17;99465.72;10220231;28;20122;-68
2021/12/29 15:15:46;;;;;;;8.05;3.33;;;;;;;10.08;89.48;99447.38;10220103;28;20686;-65
2021/12/29 15:20:50;;;;;;;6.25;3.25;;;;;;;10.16;89.37;99444.00;10220320;28;20243;-68
2021/12/29 15:25:52;;;;;;;6.22;3.10;;;;;;;10.10;89.63;99457.88;10223730;28;20517;-66
2021/12/29 15:30:59;;;;;;;6.38;3.00;;;;;;;10.18;89.65;99475.81;10222941;28;20059;-67
2021/12/29 15:36:05;;;;;;;3.88;2.83;;;;;;;10.15;89.92;99450.31;10223972;28;20066;-66
2021/12/29 15:41:09;;;;;;;5.63;3.15;;;;;;;10.15;90.15;99450.31;10219192;28;20050;-67
2021/12/29 15:46:11;;;;;;;5.20;2.83;;;;;;;10.13;90.20;99452.25;10217877;28;20059;-67
2021/12/29 15:51:29;;;;;;;5.30;3.15;;;;;;;10.15;90.12;99445.00;10220235;28;20528;-66
2021/12/29 15:56:30;;;;;;;5.53;3.05;;;;;;;10.30;89.51;99452.53;10226990;28;20138;-66
2021/12/29 16:07:55;;;;;;;6.40;3.70;;;;;;;10.32;89.61;99437.28;10227906;28;20052;-61
2021/12/29 16:12:58;;;;;;;4.75;3.60;;;;;;;10.19;91.04;99419.81;10222469;28;20049;-59
2021/12/29 16:18:02;;;;;;;6.80;3.40;;;;;;;10.16;91.30;99425.38;10209641;28;20086;-61
2021/12/29 16:23:04;;;;;;;8.13;4.53;;;;;;;10.23;91.05;99409.72;10211694;28;20057;-59
2021/12/29 16:28:06;;;;;;;6.80;3.50;;;;;;;10.19;91.73;99425.13;10209849;28;20057;-58
2021/12/29 16:33:09;;;;;;;5.50;3.05;;;;;;;10.19;92.24;99405.66;10208597;28;20067;-59
2021/12/29 16:38:10;;;;;;;5.55;3.00;;;;;;;10.12;93.42;99412.50;10212323;28;20509;-61
2021/12/29 16:43:12;;;;;;;5.88;3.22;;;;;;;10.11;93.82;99390.41;10206934;28;20047;-61
2021/12/29 16:48:14;;;;;;;5.97;2.63;;;;;;;10.12;94.11;99408.06;10195389;28;20142;-59
2021/12/29 16:53:19;;;;;;;6.65;3.00;;;;;;;10.11;94.14;99389.59;10209817;28;20142;-59
2021/12/29 16:58:22;;;;;;;6.78;3.75;;;;;;;9.98;95.24;99393.34;10209523;28;20380;-60
2021/12/29 17:03:24;;;;;;;9.05;5.25;;;;;;;9.95;96.07;99363.56;10209355;28;20055;-58
2021/12/29 17:08:26;;;;;;;7.88;5.15;;;;;;;10.09;95.79;99397.69;10211262;28;20608;-59
2021/12/29 17:13:30;;;;;;;9.50;7.13;;;;;;;10.04;96.33;99395.47;10194817;28;20046;-58
2021/12/29 17:18:32;;;;;;;10.35;6.45;;;;;;;10.05;96.28;99404.28;10210459;28;20540;-60
2021/12/29 17:23:33;;;;;;;6.82;6.18;;;;;;;9.96;97.14;99407.78;10216443;28;20050;-60
2021/12/29 17:28:36;;;;;;;6.68;5.68;;;;;;;9.95;97.46;99414.06;10210745;28;20188;-61
2021/12/29 17:33:37;;;;;;;9.52;5.60;;;;;;;9.85;98.63;99409.59;10211152;28;20099;-59
2021/12/29 17:38:39;;;;;;;5.97;5.38;;;;;;;9.82;98.80;99401.91;10210122;28;20051;-61
2021/12/29 17:43:40;;;;;;;7.28;5.75;;;;;;;9.75;99.99;99406.09;10192282;28;20061;-60
2021/12/29 17:48:42;;;;;;;7.93;5.80;;;;;;;9.77;100.00;99417.41;10203796;28;20062;-62
2021/12/29 17:53:46;;;;;;;4.60;3.92;;;;;;;9.72;100.00;99420.50;10209143;28;20055;-63
2021/12/29 17:58:48;;;;;;;5.80;5.25;;;;;;;9.68;100.00;99413.78;10191760;28;20048;-60
2021/12/29 18:03:50;;;;;;;5.85;3.97;;;;;;;9.63;100.00;99416.00;10205645;28;20047;-61
2021/12/29 18:08:52;;;;;;;5.45;4.95;;;;;;;9.80;100.00;99413.66;10228436;23;20047;-60
2021/12/29 18:13:53;;;;;;;4.70;4.30;;;;;;;9.72;100.00;99406.38;10208592;28;20169;-59
2021/12/29 18:18:55;;;;;;;4.00;3.70;;;;;;;9.64;100.00;99404.41;10205560;28;20138;-60
2021/12/29 18:23:56;;;;;;;3.10;2.88;;;;;;;9.72;100.00;99411.69;10203137;28;20055;-58
2021/12/29 18:28:57;;;;;;;3.55;2.85;;;;;;;9.67;100.00;99405.97;10188196;28;20105;-60
2021/12/29 18:34:04;;;;;;;3.70;3.10;;;;;;;9.78;100.00;99418.28;10189432;28;20069;-59
2021/12/29 18:39:07;;;;;;;3.60;3.30;;;;;;;9.81;100.00;99421.47;10185849;28;20055;-59
2021/12/29 18:44:08;;;;;;;2.78;2.58;;;;;;;9.84;100.00;99399.94;10183504;28;20055;-60
2021/12/29 18:49:10;;;;;;;3.90;3.50;;;;;;;9.80;100.00;99398.53;10185960;28;20062;-58
2021/12/29 18:54:11;;;;;;;6.03;2.83;;;;;;;9.89;100.00;99403.03;10185790;28;20066;-59
2021/12/29 18:59:12;;;;;;;2.50;2.30;;;;;;;9.89;100.00;99424.28;10187485;28;20055;-59
2021/12/29 19:04:14;;;;;;;2.78;2.50;;;;;;;9.94;100.00;99423.00;10186820;28;20063;-59
2021/12/29 19:09:18;;;;;;;3.05;2.83;;;;;;;9.86;100.00;99391.81;10180660;28;20062;-58
2021/12/29 19:14:20;;;;;;;3.07;2.87;;;;;;;9.99;100.00;99408.31;10179140;28;20133;-58
2021/12/29 19:19:22;;;;;;;3.50;2.78;;;;;;;9.84;100.00;99393.78;10176958;28;20051;-60
2021/12/29 19:24:24;;;;;;;3.00;2.80;;;;;;;9.85;100.00;99398.97;10176648;28;20149;-58
2021/12/29 19:29:26;;;;;;;3.33;3.03;;;;;;;10.09;100.00;99429.63;10184253;28;20060;-60
2021/12/29 19:34:33;;;;;;;3.38;3.08;;;;;;;9.95;100.00;99443.31;10193476;28;20075;-59
2021/12/29 19:39:35;;;;;;;3.30;3.10;;;;;;;9.86;100.00;99445.84;10185802;28;20549;-59
2021/12/29 19:44:38;;;;;;;4.68;4.28;;;;;;;9.87;100.00;99441.34;10184365;28;20246;-59
2021/12/29 19:49:39;;;;;;;4.70;4.30;;;;;;;9.81;100.00;99448.06;10181172;28;20059;-59
2021/12/29 19:54:43;;;;;;;9.93;6.15;;;;;;;9.82;100.00;99439.13;10183590;28;20417;-59
2021/12/29 19:59:45;;;;;;;6.17;5.67;;;;;;;9.83;100.00;99462.06;10186294;28;20055;-59
2021/12/29 20:04:50;;;;;;;5.90;5.40;;;;;;;9.95;100.00;99469.91;10185916;28;20067;-59
2021/12/29 20:09:51;;;;;;;;;;;;;;;9.98;100.00;99458.97;10185216;28;20458;-59
2021/12/29 20:14:52;;;;;;;7.18;6.57;;;;;;;10.00;100.00;99449.06;10180432;28;20262;-58
2021/12/29 20:19:54;;;;;;;8.60;7.82;;;;;;;9.96;100.00;99459.13;10182861;28;20119;-58
2021/12/29 20:24:55;;;;;;;9.52;8.60;;;;;;;10.02;100.00;99473.69;10184037;28;20048;-59
2021/12/29 20:29:57;;;;;;;9.63;8.82;;;;;;;9.93;100.00;99466.56;10183727;28;20055;-61
2021/12/29 20:34:58;;;;;;;11.43;10.32;;;;;;;9.91;100.00;99472.84;10189380;28;20634;-59
2021/12/29 20:40:00;;;;;;;12.30;11.00;;;;;;;9.94;100.00;99486.81;10187329;28;20059;-59
2021/12/29 20:45:03;;;;;;;11.52;10.43;;;;;;;9.89;100.00;99484.56;10189128;28;20146;-59
2021/12/29 20:50:08;;;;;;;12.98;11.77;;;;;;;9.94;100.00;99495.66;10189712;28;20066;-59
2021/12/29 20:55:12;;;;;;;11.32;10.32;;;;;;;9.90;100.00;99495.06;10194410;28;20055;-60
2021/12/29 21:00:14;;;;;;;11.50;10.30;;;;;;;9.99;100.00;99521.81;10205436;28;20063;-60
2021/12/29 21:05:15;;;;;;;12.52;11.32;;;;;;;9.94;100.00;99524.03;10200578;28;20086;-60
2021/12/29 21:10:23;;;;;;;11.68;10.50;;;;;;;9.98;100.00;99530.78;10182557;28;20370;-60
2021/12/29 21:15:29;;;;;;;12.77;11.23;;;;;;;9.94;100.00;99526.69;10181197;28;20047;-59
2021/12/29 21:20:32;;;;;;;12.57;11.25;;;;;;;10.02;100.00;99548.13;10182785;28;20137;-59
2021/12/29 21:25:34;;;;;;;12.15;10.95;;;;;;;10.06;100.00;99544.22;10181738;28;20397;-60
2021/12/29 21:30:36;;;;;;;13.82;11.70;;;;;;;10.13;100.00;99542.69;10181153;28;20051;-59
2021/12/29 21:35:38;;;;;;;13.32;11.82;;;;;;;10.12;100.00;99562.28;10177896;28;20058;-61
2021/12/29 21:40:40;;;;;;;10.75;9.68;;;;;;;10.19;100.00;99558.13;10188737;28;20055;-64
2021/12/29 21:45:42;;;;;;;9.95;8.98;;;;;;;10.23;100.00;99559.50;10189485;28;20049;-59
2021/12/29 21:50:46;;;;;;;10.38;8.98;;;;;;;10.22;100.00;99573.78;10179453;28;20130;-61
2021/12/29 21:55:48;;;;;;;10.50;9.50;;;;;;;10.22;100.00;99579.13;10185930;28;20910;-58
2021/12/29 22:00:50;;;;;;;9.88;7.93;;;;;;;10.21;100.00;99577.41;10186559;28;20055;-59
2021/12/29 22:05:52;;;;;;;9.98;8.88;;;;;;;10.25;100.00;99605.44;10194734;28;20706;-58
2021/12/29 22:10:53;;;;;;;9.25;7.05;;;;;;;10.35;100.00;99608.13;10182503;28;20051;-59
2021/12/29 22:15:55;;;;;;;7.35;6.45;;;;;;;10.40;100.00;99629.84;10184072;28;20055;-60
2021/12/29 22:20:56;;;;;;;7.03;6.32;;;;;;;10.47;100.00;99624.81;10173897;28;20872;-61
2021/12/29 22:25:58;;;;;;;7.15;6.55;;;;;;;10.45;100.00;99624.13;10182495;28;21296;-59
2021/12/29 22:31:02;;;;;;;7.03;6.30;;;;;;;10.55;100.00;99656.91;10184994;28;20052;-60
2021/12/29 22:36:06;;;;;;;7.68;6.60;;;;;;;10.63;100.00;99658.00;10184883;28;20051;-60
2021/12/29 22:41:11;;;;;;;7.75;6.95;;;;;;;10.70;100.00;99662.63;10179699;28;20048;-60
2021/12/29 22:46:14;;;;;;;8.30;7.55;;;;;;;10.71;100.00;99674.16;10175338;28;20123;-60
2021/12/29 22:51:16;;;;;;;8.15;7.45;;;;;;;10.61;100.00;99680.31;10183917;28;20594;-61
2021/12/29 22:56:17;;;;;;;8.15;7.32;;;;;;;10.67;100.00;99696.69;10184851;28;20064;-59
2021/12/29 23:01:28;;;;;;;8.68;7.70;;;;;;;10.68;100.00;99712.53;10178306;28;20067;-59
2021/12/29 23:06:30;;;;;;;7.82;7.05;;;;;;;10.66;100.00;99705.66;10179232;28;20491;-62
2021/12/29 23:11:32;;;;;;;8.65;7.85;;;;;;;10.66;100.00;99716.28;10161153;28;20131;-62
2021/12/29 23:16:39;;;;;;;9.85;8.95;;;;;;;10.59;100.00;99719.50;10173170;28;20574;-61
2021/12/29 23:21:44;;;;;;;9.95;8.95;;;;;;;10.35;100.00;99689.75;10162920;28;20341;-61
2021/12/29 23:32:06;;;;;;;9.23;8.23;;;;;;;10.56;100.00;99749.06;10164675;28;20013;-61
2021/12/29 23:37:09;;;;;;;9.27;8.32;;;;;;;10.58;100.00;99775.53;10166767;28;20134;-62
2021/12/29 23:42:10;;;;;;;9.73;8.73;;;;;;;10.56;100.00;99773.00;10161702;28;20083;-62
2021/12/29 23:47:12;;;;;;;10.00;9.00;;;;;;;10.51;100.00;99769.91;10160414;28;20137;-60
2021/12/29 23:52:13;;;;;;;9.20;8.35;;;;;;;10.68;100.00;99800.38;10174427;28;20071;-62